Time;durP1;ratioP1;P1;durP2;ratioP2;P2;SDS_P1;SDS_P2;PMS_P1;PMS_P2;Temp;Humidity;BMP_temperature;BMP_pressure;BME280_temperature;BME280_humidity;BME280_pressure;Samples;Min_cycle;Max_cycle;Signal;HPM_P1;HPM_P2
2022/12/12 00:00:29;;;;;;;7.60;6.30;;;;;;;;;;108208;1271;25325;-33
2022/12/12 00:03:22;;;;;;;7.60;6.10;;;;;;;;;;108091;1271;22658;-33
2022/12/12 00:06:02;;;;;;;7.50;5.60;;;;;;;;;;108118;1276;22559;-33
2022/12/12 00:08:36;;;;;;;7.60;5.90;;;;;;;;;;108090;1268;22723;-33
2022/12/12 00:11:10;;;;;;;7.50;6.00;;;;;;;;;;108108;1268;22585;-33
2022/12/12 00:13:59;;;;;;;7.60;5.90;;;;;;;;;;108146;1273;22560;-32
2022/12/12 00:16:34;;;;;;;7.70;6.00;;;;;;;;;;108224;1265;22561;-33
2022/12/12 00:19:10;;;;;;;7.70;6.00;;;;;;;;;;108219;1273;22571;-33
2022/12/12 00:21:44;;;;;;;7.10;5.50;;;;;;;;;;108201;1271;22565;-33
2022/12/12 00:24:18;;;;;;;7.50;5.40;;;;;;;;;;108118;1272;22569;-33
2022/12/12 00:26:51;;;;;;;7.10;5.80;;;;;;;;;;108127;1272;22608;-33
2022/12/12 00:29:23;;;;;;;6.60;5.40;;;;;;;;;;108091;1273;22593;-33
2022/12/12 00:31:56;;;;;;;7.00;5.40;;;;;;;;;;108102;1274;22721;-33
2022/12/12 00:34:28;;;;;;;7.00;5.60;;;;;;;;;;108149;1273;25352;-32
2022/12/12 00:37:00;;;;;;;6.70;5.00;;;;;;;;;;108216;1275;22813;-33
2022/12/12 00:39:33;;;;;;;6.90;5.50;;;;;;;;;;108216;1271;22606;-33
2022/12/12 00:42:06;;;;;;;7.80;5.60;;;;;;;;;;108227;1272;22536;-33
2022/12/12 00:44:38;;;;;;;7.70;5.50;;;;;;;;;;108099;1272;25400;-33
2022/12/12 00:47:11;;;;;;;7.40;5.70;;;;;;;;;;108087;1273;22668;-33
2022/12/12 00:49:44;;;;;;;7.00;4.90;;;;;;;;;;108088;1272;22610;-33
2022/12/12 00:52:16;;;;;;;7.20;5.50;;;;;;;;;;108078;1276;22669;-33
2022/12/12 00:54:51;;;;;;;7.30;5.10;;;;;;;;;;108103;1271;22569;-33
2022/12/12 00:57:23;;;;;;;7.20;5.30;;;;;;;;;;108148;1271;22569;-33
2022/12/12 00:59:55;;;;;;;7.00;5.00;;;;;;;;;;108155;1271;24843;-33
2022/12/12 01:02:28;;;;;;;6.30;5.10;;;;;;;;;;108189;1269;22589;-33
2022/12/12 01:05:02;;;;;;;6.90;4.90;;;;;;;;;;108088;1271;22512;-33
2022/12/12 01:07:39;;;;;;;6.90;5.00;;;;;;;;;;108085;1274;22566;-33
2022/12/12 01:10:13;;;;;;;6.40;4.50;;;;;;;;;;108097;1277;22568;-33
2022/12/12 01:12:46;;;;;;;6.50;4.80;;;;;;;;;;108091;1276;22563;-33
2022/12/12 01:15:20;;;;;;;6.80;5.10;;;;;;;;;;108085;1271;25292;-33
2022/12/12 01:17:53;;;;;;;6.40;5.00;;;;;;;;;;108171;1272;24840;-33
2022/12/12 01:20:28;;;;;;;6.50;4.50;;;;;;;;;;108185;1272;22589;-33
2022/12/12 01:23:01;;;;;;;6.80;4.40;;;;;;;;;;108147;1271;23505;-33
2022/12/12 01:25:33;;;;;;;6.40;5.00;;;;;;;;;;108055;1273;22584;-33
2022/12/12 01:28:10;;;;;;;6.50;4.70;;;;;;;;;;108063;1273;25321;-33
2022/12/12 01:30:43;;;;;;;6.00;4.30;;;;;;;;;;108059;1274;22564;-33
2022/12/12 01:33:15;;;;;;;7.30;4.30;;;;;;;;;;108103;1274;23924;-33
2022/12/12 01:35:47;;;;;;;7.00;4.60;;;;;;;;;;108089;1271;24878;-33
2022/12/12 01:38:19;;;;;;;6.60;4.50;;;;;;;;;;108193;1271;25289;-33
2022/12/12 01:40:54;;;;;;;6.50;4.60;;;;;;;;;;108195;1277;22577;-33
2022/12/12 01:43:28;;;;;;;6.50;4.70;;;;;;;;;;108198;1271;22601;-33
2022/12/12 01:46:38;;;;;;;6.60;4.90;;;;;;;;;;108134;1271;25426;-33
2022/12/12 01:49:22;;;;;;;6.10;4.80;;;;;;;;;;108117;1264;22589;-33
2022/12/12 01:52:02;;;;;;;6.60;4.70;;;;;;;;;;108097;1273;22585;-33
2022/12/12 01:54:42;;;;;;;6.10;4.50;;;;;;;;;;108083;1274;22587;-33
2022/12/12 01:57:20;;;;;;;6.00;4.70;;;;;;;;;;108117;1271;22669;-32
2022/12/12 01:59:54;;;;;;;6.00;4.50;;;;;;;;;;108200;1269;22553;-33
2022/12/12 02:02:28;;;;;;;6.20;4.60;;;;;;;;;;108239;1271;22508;-33
2022/12/12 02:05:05;;;;;;;6.40;4.70;;;;;;;;;;108213;1271;22558;-33
2022/12/12 02:07:42;;;;;;;6.10;4.50;;;;;;;;;;108020;1276;24310;-33
2022/12/12 02:10:16;;;;;;;6.20;4.30;;;;;;;;;;108060;1271;25238;-33
2022/12/12 02:12:49;;;;;;;6.30;4.30;;;;;;;;;;108061;1272;22568;-33
2022/12/12 02:15:21;;;;;;;6.80;4.40;;;;;;;;;;108037;1274;22574;-33
2022/12/12 02:18:06;;;;;;;6.60;4.60;;;;;;;;;;108127;1271;24968;-33
2022/12/12 02:21:01;;;;;;;6.00;4.20;;;;;;;;;;108170;1273;22577;-33
2022/12/12 02:24:15;;;;;;;5.80;4.20;;;;;;;;;;108165;1270;26073;-33
2022/12/12 02:27:26;;;;;;;5.60;4.10;;;;;;;;;;108093;1271;24085;-33
2022/12/12 02:30:11;;;;;;;7.00;4.50;;;;;;;;;;108077;1273;22593;-33
2022/12/12 02:33:09;;;;;;;6.40;4.50;;;;;;;;;;108058;1277;24094;-33
2022/12/12 02:35:58;;;;;;;5.60;3.80;;;;;;;;;;108039;1274;26553;-33
2022/12/12 02:38:41;;;;;;;8.20;4.60;;;;;;;;;;108139;1268;22588;-33
2022/12/12 02:41:27;;;;;;;6.30;4.50;;;;;;;;;;108156;1272;25448;-33
2022/12/12 02:44:14;;;;;;;5.50;4.00;;;;;;;;;;108161;1274;22651;-33
2022/12/12 02:46:56;;;;;;;6.10;4.30;;;;;;;;;;108124;1271;24911;-32
2022/12/12 02:49:36;;;;;;;5.50;3.90;;;;;;;;;;108044;1274;22588;-33
2022/12/12 02:52:10;;;;;;;5.40;3.90;;;;;;;;;;108068;1272;22584;-33
2022/12/12 02:54:45;;;;;;;5.60;3.90;;;;;;;;;;108100;1274;22576;-32
2022/12/12 02:57:22;;;;;;;6.00;4.10;;;;;;;;;;108035;1271;22565;-32
2022/12/12 03:00:00;;;;;;;5.50;3.80;;;;;;;;;;108176;1277;22565;-33
2022/12/12 03:09:17;;;;;;;5.10;3.90;;;;;;;;;;108057;1274;22573;-33
2022/12/12 03:12:04;;;;;;;5.30;3.70;;;;;;;;;;108083;1274;22632;-33
2022/12/12 03:14:53;;;;;;;6.30;4.00;;;;;;;;;;108057;1276;24828;-33
2022/12/12 03:17:36;;;;;;;5.90;3.80;;;;;;;;;;108044;1277;23279;-33
2022/12/12 03:20:18;;;;;;;5.10;3.50;;;;;;;;;;108142;1276;22568;-33
2022/12/12 03:22:58;;;;;;;5.10;3.30;;;;;;;;;;108208;1271;22574;-33
2022/12/12 03:25:38;;;;;;;5.30;3.40;;;;;;;;;;108172;1271;22566;-33
2022/12/12 03:28:18;;;;;;;5.50;3.70;;;;;;;;;;108066;1272;22585;-33
2022/12/12 03:30:56;;;;;;;5.20;3.30;;;;;;;;;;108054;1277;25943;-33
2022/12/12 03:33:34;;;;;;;5.10;3.40;;;;;;;;;;108109;1272;24042;-33
2022/12/12 03:36:14;;;;;;;5.40;3.50;;;;;;;;;;108090;1277;22569;-33
2022/12/12 03:38:55;;;;;;;4.80;3.30;;;;;;;;;;108124;1271;22556;-33
2022/12/12 03:41:36;;;;;;;5.30;3.60;;;;;;;;;;108196;1265;22585;-33
2022/12/12 03:44:13;;;;;;;5.50;3.60;;;;;;;;;;108141;1273;22585;-33
2022/12/12 03:46:51;;;;;;;5.30;3.50;;;;;;;;;;108148;1277;25226;-33
2022/12/12 03:49:29;;;;;;;5.20;3.70;;;;;;;;;;108049;1274;25253;-33
2022/12/12 03:52:07;;;;;;;6.00;3.40;;;;;;;;;;108067;1271;22581;-33
2022/12/12 03:54:48;;;;;;;5.70;3.60;;;;;;;;;;108025;1273;22571;-33
2022/12/12 03:57:24;;;;;;;5.60;3.80;;;;;;;;;;108098;1276;22587;-32
2022/12/12 04:00:05;;;;;;;5.80;3.90;;;;;;;;;;108136;1271;22566;-33
2022/12/12 04:02:45;;;;;;;5.40;3.20;;;;;;;;;;108168;1271;24925;-33
2022/12/12 04:05:22;;;;;;;5.10;3.50;;;;;;;;;;108174;1274;22599;-32
2022/12/12 04:08:02;;;;;;;5.20;3.30;;;;;;;;;;108188;1269;24844;-33
2022/12/12 04:13:40;;;;;;;5.00;3.30;;;;;;;;;;108089;1270;22586;-32
2022/12/12 04:16:19;;;;;;;4.90;3.20;;;;;;;;;;108067;1273;22627;-33
2022/12/12 04:18:59;;;;;;;5.30;3.40;;;;;;;;;;108041;1271;22573;-32
2022/12/12 04:24:39;;;;;;;4.60;3.10;;;;;;;;;;108142;1272;22579;-32
2022/12/12 04:27:25;;;;;;;5.20;2.90;;;;;;;;;;108174;1272;24832;-33
2022/12/12 04:30:07;;;;;;;4.30;3.00;;;;;;;;;;108067;1272;24930;-33
2022/12/12 04:32:48;;;;;;;4.80;3.00;;;;;;;;;;108071;1276;23837;-33
2022/12/12 04:35:26;;;;;;;4.60;2.90;;;;;;;;;;108065;1277;25238;-33
2022/12/12 04:38:06;;;;;;;5.20;3.40;;;;;;;;;;108073;1277;24851;-33
2022/12/12 04:40:42;;;;;;;5.60;3.10;;;;;;;;;;108113;1277;22795;-32
2022/12/12 04:43:20;;;;;;;4.70;2.80;;;;;;;;;;108218;1270;22565;-33
2022/12/12 04:45:57;;;;;;;4.80;3.20;;;;;;;;;;108219;1277;22607;-33
2022/12/12 04:48:36;;;;;;;5.50;3.30;;;;;;;;;;108170;1277;22595;-33
2022/12/12 04:51:10;;;;;;;5.00;3.10;;;;;;;;;;108067;1275;23931;-33
2022/12/12 04:53:48;;;;;;;5.20;3.30;;;;;;;;;;108049;1280;23088;-33
2022/12/12 04:56:27;;;;;;;4.90;3.10;;;;;;;;;;108059;1273;22580;-33
2022/12/12 04:58:59;;;;;;;5.50;3.10;;;;;;;;;;108059;1277;22569;-33
2022/12/12 05:01:44;;;;;;;5.00;2.90;;;;;;;;;;108164;1272;22588;-33
2022/12/12 05:04:27;;;;;;;4.80;2.80;;;;;;;;;;108164;1276;22553;-33
2022/12/12 05:07:07;;;;;;;5.10;3.30;;;;;;;;;;108083;1272;155277;-33
2022/12/12 05:09:40;;;;;;;5.00;2.80;;;;;;;;;;108106;1275;22585;-33
2022/12/12 05:12:13;;;;;;;4.60;3.00;;;;;;;;;;108054;1268;23394;-33
2022/12/12 05:14:45;;;;;;;5.50;3.10;;;;;;;;;;108106;1275;24837;-33
2022/12/12 05:17:25;;;;;;;4.80;2.80;;;;;;;;;;108086;1273;22594;-33
2022/12/12 05:19:58;;;;;;;4.90;2.80;;;;;;;;;;108102;1274;22626;-33
2022/12/12 05:22:30;;;;;;;4.70;3.00;;;;;;;;;;108171;1272;22591;-33
2022/12/12 05:25:07;;;;;;;4.90;3.20;;;;;;;;;;108163;1271;22566;-33
2022/12/12 05:27:55;;;;;;;4.30;2.80;;;;;;;;;;108176;1277;22559;-33
2022/12/12 05:30:27;;;;;;;5.10;2.80;;;;;;;;;;108071;1274;22586;-33
2022/12/12 05:33:01;;;;;;;5.30;3.00;;;;;;;;;;108070;1280;22861;-33
2022/12/12 05:35:34;;;;;;;5.10;2.90;;;;;;;;;;108060;1274;22578;-33
2022/12/12 05:38:09;;;;;;;5.80;3.60;;;;;;;;;;108052;1273;22605;-33
2022/12/12 05:40:42;;;;;;;4.90;3.10;;;;;;;;;;108077;1276;22589;-33
2022/12/12 05:43:15;;;;;;;5.30;2.60;;;;;;;;;;108214;1276;22569;-33
2022/12/12 05:45:47;;;;;;;5.00;3.30;;;;;;;;;;108235;1277;22563;-33
2022/12/12 05:48:19;;;;;;;7.80;2.90;;;;;;;;;;108214;1277;22579;-33
2022/12/12 05:50:58;;;;;;;7.00;3.30;;;;;;;;;;108159;1278;25429;-33
2022/12/12 05:53:32;;;;;;;7.30;3.30;;;;;;;;;;108104;1276;22584;-33
2022/12/12 05:56:12;;;;;;;5.80;3.30;;;;;;;;;;108077;1277;22572;-33
2022/12/12 05:58:47;;;;;;;5.50;3.30;;;;;;;;;;108152;1277;22596;-33
2022/12/12 06:01:20;;;;;;;5.20;2.90;;;;;;;;;;108153;1263;22643;-33
2022/12/12 06:03:52;;;;;;;6.20;2.90;;;;;;;;;;108182;1275;22591;-33
2022/12/12 06:06:27;;;;;;;5.70;3.20;;;;;;;;;;108195;1273;22572;-33
2022/12/12 06:08:59;;;;;;;6.70;3.00;;;;;;;;;;108176;1271;22559;-33
2022/12/12 06:11:32;;;;;;;5.50;3.10;;;;;;;;;;108110;1273;25438;-33
2022/12/12 06:14:07;;;;;;;6.00;3.00;;;;;;;;;;108084;1276;22573;-33
2022/12/12 06:16:39;;;;;;;6.70;3.20;;;;;;;;;;108151;1272;22564;-33
2022/12/12 06:19:12;;;;;;;5.40;3.00;;;;;;;;;;108166;1270;24085;-33
2022/12/12 06:21:45;;;;;;;6.80;2.80;;;;;;;;;;108098;1277;25081;-33
2022/12/12 06:24:17;;;;;;;5.60;3.20;;;;;;;;;;108155;1272;22572;-33
2022/12/12 06:26:49;;;;;;;5.70;2.80;;;;;;;;;;108153;1272;24878;-33
2022/12/12 06:29:23;;;;;;;6.60;3.30;;;;;;;;;;108166;1275;22614;-33
2022/12/12 06:31:55;;;;;;;6.10;3.10;;;;;;;;;;108102;1278;24916;-33
2022/12/12 06:34:30;;;;;;;5.40;3.10;;;;;;;;;;108070;1276;22562;-33
2022/12/12 06:37:04;;;;;;;5.00;2.90;;;;;;;;;;108060;1280;22712;-33
2022/12/12 06:39:36;;;;;;;5.20;3.20;;;;;;;;;;108059;1278;25288;-33
2022/12/12 06:42:09;;;;;;;5.80;2.90;;;;;;;;;;108092;1277;22569;-28
2022/12/12 06:44:44;;;;;;;5.00;2.90;;;;;;;;;;108177;1271;22579;-28
2022/12/12 06:47:16;;;;;;;5.50;3.30;;;;;;;;;;108171;1273;22556;-28
2022/12/12 06:49:51;;;;;;;4.90;3.10;;;;;;;;;;108197;1275;22592;-28
2022/12/12 06:52:23;;;;;;;5.10;2.80;;;;;;;;;;108116;1277;23310;-28
2022/12/12 06:54:55;;;;;;;4.60;2.50;;;;;;;;;;108113;1272;22878;-28
2022/12/12 06:57:28;;;;;;;;;;;;;;;;;;108114;1274;23303;-28
2022/12/12 07:00:00;;;;;;;5.80;3.00;;;;;;;;;;108116;1271;22575;-28
2022/12/12 07:02:33;;;;;;;4.50;2.70;;;;;;;;;;108115;1272;22569;-28
2022/12/12 07:05:10;;;;;;;5.60;2.90;;;;;;;;;;108160;1275;22582;-28
2022/12/12 07:07:42;;;;;;;6.20;3.20;;;;;;;;;;108212;1270;23880;-28
2022/12/12 07:10:14;;;;;;;5.00;2.90;;;;;;;;;;108142;1276;22508;-28
2022/12/12 07:12:47;;;;;;;5.10;3.10;;;;;;;;;;108138;1273;22732;-29
2022/12/12 07:15:20;;;;;;;5.30;3.30;;;;;;;;;;108101;1276;25285;-30
2022/12/12 07:17:57;;;;;;;6.20;3.00;;;;;;;;;;108137;1276;24863;-30
2022/12/12 07:20:29;;;;;;;4.30;2.80;;;;;;;;;;108098;1279;25324;-30
2022/12/12 07:23:02;;;;;;;5.40;3.00;;;;;;;;;;108103;1272;25291;-30
2022/12/12 07:25:36;;;;;;;5.40;2.80;;;;;;;;;;108195;1273;22652;-30
2022/12/12 07:28:11;;;;;;;4.80;2.70;;;;;;;;;;108168;1272;25272;-30
2022/12/12 07:30:45;;;;;;;5.40;3.00;;;;;;;;;;108168;1272;26050;-30
2022/12/12 07:33:19;;;;;;;5.20;3.20;;;;;;;;;;108145;1277;22588;-30
2022/12/12 07:35:51;;;;;;;6.10;3.20;;;;;;;;;;108142;1272;25277;-30
2022/12/12 07:38:23;;;;;;;5.60;3.40;;;;;;;;;;108122;1275;22601;-30
2022/12/12 07:41:04;;;;;;;6.10;3.50;;;;;;;;;;108148;1264;23293;31
2022/12/12 07:43:38;;;;;;;5.80;3.50;;;;;;;;;;107594;1279;22708;-26
2022/12/12 07:46:13;;;;;;;6.80;3.60;;;;;;;;;;107736;1278;22578;-27
2022/12/12 07:48:47;;;;;;;5.50;3.30;;;;;;;;;;107754;1279;22589;-27
2022/12/12 07:51:20;;;;;;;6.80;3.90;;;;;;;;;;107727;1282;22640;-27
2022/12/12 07:53:55;;;;;;;5.70;3.20;;;;;;;;;;107735;1281;22661;-28
2022/12/12 07:56:29;;;;;;;6.40;3.50;;;;;;;;;;107853;1279;22604;-28
2022/12/12 07:59:02;;;;;;;5.80;3.50;;;;;;;;;;107797;1280;25263;-27
2022/12/12 08:01:37;;;;;;;6.10;3.50;;;;;;;;;;107804;1283;25294;-28
2022/12/12 08:04:15;;;;;;;5.60;3.90;;;;;;;;;;107708;1279;26138;-28
2022/12/12 08:06:52;;;;;;;6.40;4.10;;;;;;;;;;107767;1279;22573;-28
2022/12/12 08:09:25;;;;;;;5.40;3.80;;;;;;;;;;107733;1281;24947;-28
2022/12/12 08:12:01;;;;;;;4.70;3.00;;;;;;;;;;107756;1279;22588;-28
2022/12/12 08:14:36;;;;;;;5.40;3.20;;;;;;;;;;107721;1281;22617;-28
2022/12/12 08:17:11;;;;;;;5.50;3.10;;;;;;;;;;107796;1283;25285;-28
2022/12/12 08:19:43;;;;;;;6.20;3.40;;;;;;;;;;107777;1277;22578;-28
2022/12/12 08:22:19;;;;;;;6.10;3.50;;;;;;;;;;107796;1277;25315;-28
2022/12/12 08:24:52;;;;;;;5.90;3.80;;;;;;;;;;107742;1283;22667;-28
2022/12/12 08:27:27;;;;;;;6.20;3.60;;;;;;;;;;107756;1279;23854;-27
2022/12/12 08:30:02;;;;;;;5.70;3.40;;;;;;;;;;107720;1276;22581;-33
2022/12/12 08:32:32;;;;;;;;;;;;;;;;;;107740;1279;22577;-33
2022/12/12 08:35:07;;;;;;;4.70;2.90;;;;;;;;;;107721;1285;22598;-33
2022/12/12 08:37:42;;;;;;;6.10;3.40;;;;;;;;;;107791;1279;22579;-32
2022/12/12 08:40:18;;;;;;;5.10;3.30;;;;;;;;;;107772;1282;22657;-32
2022/12/12 08:42:50;;;;;;;5.30;3.30;;;;;;;;;;107850;1276;23393;-32
2022/12/12 08:45:25;;;;;;;4.90;3.10;;;;;;;;;;107810;1276;22592;-32
2022/12/12 08:47:58;;;;;;;4.60;2.80;;;;;;;;;;107874;1276;22594;-31
2022/12/12 08:50:30;;;;;;;5.40;3.40;;;;;;;;;;107833;1276;22608;-32
2022/12/12 08:53:03;;;;;;;5.90;2.90;;;;;;;;;;107780;1277;22882;-32
2022/12/12 08:55:35;;;;;;;5.10;2.90;;;;;;;;;;107821;1276;22591;-32
2022/12/12 08:58:08;;;;;;;5.50;3.10;;;;;;;;;;107892;1276;22590;-31
2022/12/12 09:00:43;;;;;;;5.30;3.10;;;;;;;;;;107916;1276;23070;-32
2022/12/12 09:03:17;;;;;;;5.20;3.10;;;;;;;;;;107886;1276;23825;-31
2022/12/12 09:05:50;;;;;;;4.70;2.70;;;;;;;;;;107739;1278;22596;-31
2022/12/12 09:08:24;;;;;;;5.40;3.00;;;;;;;;;;107780;1282;23507;-31
2022/12/12 09:10:58;;;;;;;6.30;3.10;;;;;;;;;;107803;1279;24544;-32
2022/12/12 09:13:30;;;;;;;5.60;3.00;;;;;;;;;;107838;1279;22588;-31
2022/12/12 09:16:03;;;;;;;4.40;2.70;;;;;;;;;;107868;1276;23853;-32
2022/12/12 09:18:42;;;;;;;4.90;2.90;;;;;;;;;;107846;1276;25287;-31
2022/12/12 09:21:17;;;;;;;4.80;2.80;;;;;;;;;;107841;1276;22597;-31
2022/12/12 09:23:51;;;;;;;6.20;3.00;;;;;;;;;;107856;1276;22641;-31
2022/12/12 09:26:24;;;;;;;4.80;2.80;;;;;;;;;;107704;1279;22579;-32
2022/12/12 09:28:56;;;;;;;5.20;2.70;;;;;;;;;;107830;1277;22787;-31
2022/12/12 09:31:28;;;;;;;4.70;2.90;;;;;;;;;;107779;1280;25289;-32
2022/12/12 09:34:02;;;;;;;5.20;2.70;;;;;;;;;;107758;1277;22599;-32
2022/12/12 09:36:34;;;;;;;5.50;2.80;;;;;;;;;;107818;1276;22581;-31
2022/12/12 09:39:07;;;;;;;5.10;2.70;;;;;;;;;;107873;1277;22599;-31
2022/12/12 09:41:39;;;;;;;4.60;2.90;;;;;;;;;;107871;1275;22619;-31
2022/12/12 09:44:17;;;;;;;5.40;2.80;;;;;;;;;;107903;1276;22587;-32
2022/12/12 09:46:59;;;;;;;5.20;2.70;;;;;;;;;;107838;1276;22580;-31
2022/12/12 09:49:42;;;;;;;5.90;2.80;;;;;;;;;;107949;1276;22594;-32
2022/12/12 09:52:19;;;;;;;4.70;2.50;;;;;;;;;;107798;1276;22589;-32
2022/12/12 09:54:52;;;;;;;4.50;2.50;;;;;;;;;;107891;1276;22575;-32
2022/12/12 09:57:35;;;;;;;4.40;2.40;;;;;;;;;;107927;1274;22626;-31
2022/12/12 10:00:14;;;;;;;5.20;2.60;;;;;;;;;;107987;1277;23417;-32
2022/12/12 10:03:17;;;;;;;5.00;2.60;;;;;;;;;;107928;1278;22568;-32
2022/12/12 10:05:56;;;;;;;5.00;2.70;;;;;;;;;;107929;1270;22571;-31
2022/12/12 10:08:35;;;;;;;4.80;2.60;;;;;;;;;;108100;1276;22531;-32
2022/12/12 10:11:48;;;;;;;5.00;2.50;;;;;;;;;;107944;1283;22568;-32
2022/12/12 10:14:08;;;;;;;5.20;2.50;;;;;;;;;;107937;1277;22604;-32
2022/12/12 10:16:45;;;;;;;4.70;2.50;;;;;;;;;;107865;1277;22590;-33
2022/12/12 10:19:24;;;;;;;5.70;3.00;;;;;;;;;;108004;1277;22588;-33
2022/12/12 10:22:06;;;;;;;5.20;2.70;;;;;;;;;;108026;1277;22588;-32
2022/12/12 10:24:47;;;;;;;4.50;2.40;;;;;;;;;;107956;1280;23041;-32
2022/12/12 10:27:22;;;;;;;4.40;2.20;;;;;;;;;;107944;1274;26067;-32
2022/12/12 10:30:17;;;;;;;4.50;2.20;;;;;;;;;;107891;1277;23315;-31
2022/12/12 10:33:09;;;;;;;4.00;2.20;;;;;;;;;;107996;1276;22895;-31
2022/12/12 10:35:51;;;;;;;4.10;2.20;;;;;;;;;;107941;1276;25248;-32
2022/12/12 10:38:52;;;;;;;4.50;2.60;;;;;;;;;;107894;1277;22577;-33
2022/12/12 10:41:33;;;;;;;4.40;2.20;;;;;;;;;;107872;1279;26900;-33
2022/12/12 10:44:15;;;;;;;4.10;2.30;;;;;;;;;;107875;1276;23917;-33
2022/12/12 10:46:55;;;;;;;4.60;2.20;;;;;;;;;;107820;1276;23393;-33
2022/12/12 10:49:28;;;;;;;5.00;2.30;;;;;;;;;;107897;1276;25428;-32
2022/12/12 10:52:15;;;;;;;4.20;2.20;;;;;;;;;;107897;1276;22597;-27
2022/12/12 10:54:54;;;;;;;5.10;2.60;;;;;;;;;;107906;1276;25429;-27
2022/12/12 10:57:29;;;;;;;4.60;2.20;;;;;;;;;;107868;1279;22579;-28
2022/12/12 11:00:26;;;;;;;4.40;2.40;;;;;;;;;;107912;1277;22608;-28
2022/12/12 11:03:13;;;;;;;4.30;2.40;;;;;;;;;;107925;1276;22694;-28
2022/12/12 11:05:46;;;;;;;4.30;2.30;;;;;;;;;;107933;1276;22586;-28
2022/12/12 11:08:30;;;;;;;4.30;1.90;;;;;;;;;;107849;1283;22553;-28
2022/12/12 11:11:21;;;;;;;4.70;2.50;;;;;;;;;;107885;1284;22576;-28
2022/12/12 11:13:58;;;;;;;4.60;2.00;;;;;;;;;;107911;1276;22593;-28
2022/12/12 11:16:42;;;;;;;3.80;2.10;;;;;;;;;;107944;1276;22579;-27
2022/12/12 11:19:23;;;;;;;4.40;2.20;;;;;;;;;;107867;1277;22602;-28
2022/12/12 11:21:57;;;;;;;4.10;2.20;;;;;;;;;;107932;1276;22612;-28
2022/12/12 11:24:35;;;;;;;4.40;2.40;;;;;;;;;;107923;1277;22596;-28
2022/12/12 11:27:14;;;;;;;4.00;2.20;;;;;;;;;;107921;1277;23873;-28
2022/12/12 11:29:57;;;;;;;4.70;2.30;;;;;;;;;;107921;1276;22578;-28
2022/12/12 11:32:38;;;;;;;4.40;2.50;;;;;;;;;;107914;1276;23813;-28
2022/12/12 11:35:26;;;;;;;4.40;2.20;;;;;;;;;;107946;1283;22593;-27
2022/12/12 11:38:04;;;;;;;4.90;2.50;;;;;;;;;;107851;1276;23770;-27
2022/12/12 11:40:41;;;;;;;4.60;2.20;;;;;;;;;;107900;1276;22572;-27
2022/12/12 11:43:28;;;;;;;4.50;2.50;;;;;;;;;;107926;1275;25424;-27
2022/12/12 11:46:18;;;;;;;5.00;2.40;;;;;;;;;;107915;1280;24913;-27
2022/12/12 11:49:02;;;;;;;4.80;2.10;;;;;;;;;;107868;1277;22801;-27
2022/12/12 11:51:36;;;;;;;;;;;;;;;;;;107961;1279;22646;-27
2022/12/12 11:54:15;;;;;;;3.90;1.90;;;;;;;;;;107906;1279;22582;-27
2022/12/12 11:56:57;;;;;;;4.50;2.50;;;;;;;;;;107893;1276;22596;-27
2022/12/12 12:00:01;;;;;;;4.80;2.30;;;;;;;;;;107914;1276;24896;-27
2022/12/12 12:03:03;;;;;;;4.40;2.20;;;;;;;;;;107935;1276;23304;-27
2022/12/12 12:05:52;;;;;;;4.20;2.30;;;;;;;;;;107927;1276;23786;-27
2022/12/12 12:08:40;;;;;;;4.50;2.20;;;;;;;;;;107876;1276;22603;-27
2022/12/12 12:11:26;;;;;;;4.70;2.40;;;;;;;;;;107896;1277;24887;-26
2022/12/12 12:14:24;;;;;;;4.20;2.60;;;;;;;;;;107896;1278;22584;-26
2022/12/12 12:17:05;;;;;;;3.80;2.00;;;;;;;;;;107879;1276;22568;-26
2022/12/12 12:19:46;;;;;;;4.30;2.20;;;;;;;;;;107886;1276;22595;-27
2022/12/12 12:22:33;;;;;;;4.70;2.20;;;;;;;;;;107902;1278;23349;-27
2022/12/12 12:25:27;;;;;;;4.50;2.40;;;;;;;;;;107909;1280;22584;-27
2022/12/12 12:28:23;;;;;;;4.80;2.80;;;;;;;;;;107925;1277;25285;-27
2022/12/12 12:31:03;;;;;;;4.60;2.30;;;;;;;;;;108000;1280;23478;-27
2022/12/12 12:33:52;;;;;;;4.80;2.30;;;;;;;;;;107903;1276;25035;-28
2022/12/12 12:36:31;;;;;;;4.80;2.30;;;;;;;;;;107906;1276;24065;-27
2022/12/12 12:39:15;;;;;;;4.10;2.20;;;;;;;;;;107832;1276;22573;-27
2022/12/12 12:42:05;;;;;;;4.40;2.10;;;;;;;;;;107896;1276;22575;-28
2022/12/12 12:44:49;;;;;;;4.20;2.10;;;;;;;;;;107908;1277;25423;-28
2022/12/12 12:47:38;;;;;;;5.40;2.30;;;;;;;;;;107903;1276;22578;-27
2022/12/12 12:50:27;;;;;;;4.10;2.00;;;;;;;;;;107882;1284;24908;-27
2022/12/12 12:53:08;;;;;;;4.10;2.20;;;;;;;;;;107904;1277;22595;-27
2022/12/12 12:55:45;;;;;;;4.00;2.20;;;;;;;;;;107921;1277;24858;-28
2022/12/12 12:58:24;;;;;;;4.20;2.30;;;;;;;;;;107899;1276;24856;-27
2022/12/12 13:01:03;;;;;;;4.50;2.20;;;;;;;;;;107865;1278;22631;-27
2022/12/12 13:03:44;;;;;;;4.40;2.30;;;;;;;;;;107908;1277;22661;-27
2022/12/12 13:06:23;;;;;;;4.00;1.90;;;;;;;;;;107826;1275;111935;-27
2022/12/12 13:09:07;;;;;;;4.00;2.10;;;;;;;;;;107906;1276;22587;-27
2022/12/12 13:11:43;;;;;;;;;;;;;;;;;;107872;1276;22559;-27
2022/12/12 13:14:24;;;;;;;3.90;2.00;;;;;;;;;;107896;1276;22577;-27
2022/12/12 13:17:02;;;;;;;4.20;2.60;;;;;;;;;;107874;1277;22593;-27
2022/12/12 13:19:41;;;;;;;4.50;2.60;;;;;;;;;;107891;1276;22572;-27
2022/12/12 13:22:23;;;;;;;4.50;2.40;;;;;;;;;;107887;1276;23321;-27
2022/12/12 13:25:06;;;;;;;4.30;2.10;;;;;;;;;;107898;1276;22574;-27
2022/12/12 13:27:44;;;;;;;4.50;2.30;;;;;;;;;;107920;1276;22575;-27
2022/12/12 13:30:27;;;;;;;5.30;2.60;;;;;;;;;;107864;1277;23426;-27
2022/12/12 13:33:26;;;;;;;4.00;2.10;;;;;;;;;;107933;1280;22584;-27
2022/12/12 13:36:19;;;;;;;4.70;2.30;;;;;;;;;;107894;1277;22593;-27
2022/12/12 13:38:57;;;;;;;4.40;2.10;;;;;;;;;;107898;1276;22572;-27
2022/12/12 13:41:57;;;;;;;4.30;2.30;;;;;;;;;;107885;1274;22580;-27
2022/12/12 13:44:43;;;;;;;4.30;2.30;;;;;;;;;;107900;1283;22584;-27
2022/12/12 13:48:00;;;;;;;4.60;2.30;;;;;;;;;;107914;1280;22586;-27
2022/12/12 13:50:33;;;;;;;4.70;2.10;;;;;;;;;;107870;1283;22578;-27
2022/12/12 13:53:22;;;;;;;4.70;2.00;;;;;;;;;;107871;1276;22578;-27
2022/12/12 13:56:34;;;;;;;4.20;2.00;;;;;;;;;;107843;1277;22588;-28
2022/12/12 13:59:31;;;;;;;4.80;2.50;;;;;;;;;;107807;1285;23534;-27
2022/12/12 14:02:18;;;;;;;4.50;2.40;;;;;;;;;;107826;1277;22591;-27
2022/12/12 14:05:11;;;;;;;4.20;2.20;;;;;;;;;;107898;1277;25613;-27
2022/12/12 14:07:55;;;;;;;4.50;2.30;;;;;;;;;;107884;1284;22542;-26
2022/12/12 14:10:34;;;;;;;4.20;2.30;;;;;;;;;;107868;1276;22609;-26
2022/12/12 14:13:44;;;;;;;4.40;2.50;;;;;;;;;;107986;1277;22572;-26
2022/12/12 14:16:28;;;;;;;4.20;2.20;;;;;;;;;;107887;1280;22593;-26
2022/12/12 14:19:16;;;;;;;4.40;2.50;;;;;;;;;;107918;1277;23448;-27
2022/12/12 14:21:50;;;;;;;4.80;2.50;;;;;;;;;;107856;1277;22582;-26
2022/12/12 14:24:58;;;;;;;4.30;2.40;;;;;;;;;;107912;1278;24924;-27
2022/12/12 14:28:18;;;;;;;4.60;2.20;;;;;;;;;;107912;1276;22561;-27
2022/12/12 14:31:08;;;;;;;4.10;2.40;;;;;;;;;;107927;1279;24971;-27
2022/12/12 14:33:57;;;;;;;3.70;2.00;;;;;;;;;;107858;1283;22571;-27
2022/12/12 14:37:25;;;;;;;4.10;2.40;;;;;;;;;;107898;1280;25002;-27
2022/12/12 14:40:16;;;;;;;4.50;2.40;;;;;;;;;;107882;1274;22602;-27
2022/12/12 14:42:57;;;;;;;4.40;2.50;;;;;;;;;;107872;1280;22591;-27
2022/12/12 14:45:39;;;;;;;4.20;2.40;;;;;;;;;;107880;1277;22584;-27
2022/12/12 14:48:24;;;;;;;4.00;2.30;;;;;;;;;;107876;1279;23904;-28
2022/12/12 14:51:07;;;;;;;5.20;2.60;;;;;;;;;;107893;1277;22559;-27
2022/12/12 14:53:51;;;;;;;4.40;2.50;;;;;;;;;;107862;1280;22612;-27
2022/12/12 14:56:28;;;;;;;4.30;2.10;;;;;;;;;;107906;1280;22574;-27
2022/12/12 14:59:04;;;;;;;4.30;2.30;;;;;;;;;;107889;1278;22578;-27
2022/12/12 15:01:42;;;;;;;4.30;2.20;;;;;;;;;;107913;1277;22573;-27
2022/12/12 15:04:19;;;;;;;4.20;2.20;;;;;;;;;;107855;1276;22593;-27
2022/12/12 15:06:56;;;;;;;4.10;2.20;;;;;;;;;;107923;1277;22568;-27
2022/12/12 15:09:31;;;;;;;4.20;2.30;;;;;;;;;;107902;1274;23922;-27
2022/12/12 15:12:17;;;;;;;4.30;2.40;;;;;;;;;;107899;1277;23307;-30
2022/12/12 15:15:00;;;;;;;4.40;2.20;;;;;;;;;;107898;1275;23314;-30
2022/12/12 15:17:40;;;;;;;3.70;2.00;;;;;;;;;;107902;1277;23445;-27
2022/12/12 15:20:19;;;;;;;4.20;2.30;;;;;;;;;;107915;1277;22576;-27
2022/12/12 15:22:57;;;;;;;6.00;2.30;;;;;;;;;;107888;1278;22569;-29
2022/12/12 15:25:42;;;;;;;4.20;2.20;;;;;;;;;;107893;1277;22591;-29
2022/12/12 15:28:21;;;;;;;4.30;2.20;;;;;;;;;;107925;1284;22579;-29
2022/12/12 15:30:54;;;;;;;4.60;2.10;;;;;;;;;;107933;1277;22582;-29
2022/12/12 15:33:38;;;;;;;4.70;2.40;;;;;;;;;;107865;1277;22587;-29
2022/12/12 15:36:24;;;;;;;4.50;2.20;;;;;;;;;;107905;1280;22603;-29
2022/12/12 15:39:17;;;;;;;4.60;2.30;;;;;;;;;;107925;1277;22601;-29
2022/12/12 15:41:51;;;;;;;5.10;2.60;;;;;;;;;;107933;1276;22588;-29
2022/12/12 15:44:28;;;;;;;4.50;2.30;;;;;;;;;;107831;1275;22583;-29
2022/12/12 15:47:01;;;;;;;4.00;2.20;;;;;;;;;;107896;1282;22566;-28
2022/12/12 15:49:42;;;;;;;4.00;2.30;;;;;;;;;;107909;1282;22577;-27
2022/12/12 15:52:25;;;;;;;5.30;2.40;;;;;;;;;;107911;1270;24903;-31
2022/12/12 15:55:03;;;;;;;4.70;2.40;;;;;;;;;;107890;1277;24900;-32